Terminal Aerodrome Forecast
Issued by NWS Charleston, WV

Home | Current Version | Previous Version | Text Only | Print | Product List | Glossary On
Versions: 1 2 3 4 5 6 7 8 9 10 11 12 13 14 15 16 17 18 19 20 21 22 23 24 25 26
000
FTUS41 KRLX 211408 AAA
TAFEKN
TAF AMD
KEKN 211408Z 2114/2212 00000KT 3SM BR OVC002
     FM211500 00000KT 6SM BR BKN003
     FM211600 VRB03KT P6SM FEW040
     FM220300 00000KT 4SM BR SKC
     FM220500 00000KT 2SM BR SCT001
     FM220600 00000KT 1/4SM FG VV001=

USA.gov is the U.S. government's official web portal to all federal, state and local government web resources and services.